Eviapetrol IV — SVBT7 — position and weather

sailwx.info

Track history (hours):
 
Tides and Currents Weather Stations Pressure Air Temp Water Temp Dewpoint Dewpoint Depression Visibility Wind Speed Wind Dir Waves Ship Positions

Eviapetrol IV

Last reported at 2017-Nov-17 03:57 UTC. Time now 2017-Nov-18 23:44 UTC.
Position N 35°56' W 005°15'.

Length 92 m; draft 5.7 m.

Type: Tanker. MMSI: 241262000.

Date/timePositionNaut miles runAvg speedWind from/ knotsBaromVisibWave heightAir tempDewpointWater temp
2017-Nov-17 03:57N 35°56' W 005°15'4 8.8
2017-Nov-17 03:30N 35°54' W 005°19'0 0.9
2017-Nov-17 03:00N 35°54' W 005°19'0 0.0
2017-Nov-17 02:30N 35°54' W 005°19'0 0.0
2017-Nov-17 02:00N 35°54' W 005°19'0 0.0
2017-Nov-17 01:30N 35°54' W 005°19'0 0.0
2017-Nov-17 01:00N 35°54' W 005°19'0 0.0
2017-Nov-17 00:30N 35°54' W 005°19'0 0.7
2017-Nov-17 00:00N 35°54' W 005°19'2 4.6
2017-Nov-16 23:30N 35°56' W 005°20'510.9
2017-Nov-16 23:00N 36°01' W 005°22'610.9
2017-Nov-16 22:29N 36°07' W 005°23'5 0.1
2017-Nov-14 21:02N 36°04' W 005°19'0 6.5
2017-Nov-14 21:00N 36°04' W 005°19'4 7.5
2017-Nov-14 20:30N 36°03' W 005°14'  
2017-Nov-11 02:19N 36°24' E 013°44'411.9
2017-Nov-11 02:00N 36°24' E 013°49'611.5
2017-Nov-11 01:30N 36°24' E 013°56'611.7
2017-Nov-11 00:58N 36°24' E 014°03'611.7
2017-Nov-11 00:30N 36°24' E 014°10'611.8
2017-Nov-11 00:00N 36°24' E 014°18'611.8
2017-Nov-10 23:30N 36°24' E 014°25'611.7
2017-Nov-10 22:59N 36°24' E 014°32'5 9.7
2017-Nov-10 22:30N 36°24' E 014°38'  
2017-Nov-08 11:09N 40°03' E 025°03'412.6
2017-Nov-08 10:51N 40°07' E 025°06'612.4
2017-Nov-08 10:22N 40°12' E 025°09'512.7
2017-Nov-08 09:59N 40°16' E 025°12'4012.6
2017-Nov-08 06:47N 40°46' E 025°48'412.8
2017-Nov-08 06:27N 40°49' E 025°52'39 1.6
2017-Nov-07 05:59N 40°21' E 025°16'612.0
2017-Nov-07 05:30N 40°16' E 025°12'712.1
2017-Nov-07 04:54N 40°10' E 025°08'612.4
2017-Nov-07 04:27N 40°05' E 025°04'612.7
2017-Nov-07 04:00N 40°00' E 025°00'  
Track history (hours):
 
Tides and Currents Weather Stations Pressure Air Temp Water Temp Dewpoint Dewpoint Depression Visibility Wind Speed Wind Dir Waves Ship Positions

Eviapetrol IV

Last reported at 2017-Nov-17 03:57 UTC. Time now 2017-Nov-18 23:44 UTC.
Position N 35°56' W 005°15'.

Length 92 m; draft 5.7 m.

Type: Tanker. MMSI: 241262000.

Date/timePositionNaut miles runAvg speedWind from/ knotsBaromVisibWave heightAir tempDewpointWater temp
2017-Nov-17 03:57N 35°56' W 005°15'4 8.8
2017-Nov-17 03:30N 35°54' W 005°19'0 0.9
2017-Nov-17 03:00N 35°54' W 005°19'0 0.0
2017-Nov-17 02:30N 35°54' W 005°19'0 0.0
2017-Nov-17 02:00N 35°54' W 005°19'0 0.0
2017-Nov-17 01:30N 35°54' W 005°19'0 0.0
2017-Nov-17 01:00N 35°54' W 005°19'0 0.0
2017-Nov-17 00:30N 35°54' W 005°19'0 0.7
2017-Nov-17 00:00N 35°54' W 005°19'2 4.6
2017-Nov-16 23:30N 35°56' W 005°20'510.9
2017-Nov-16 23:00N 36°01' W 005°22'610.9
2017-Nov-16 22:29N 36°07' W 005°23'5 0.1
2017-Nov-14 21:02N 36°04' W 005°19'0 6.5
2017-Nov-14 21:00N 36°04' W 005°19'4 7.5
2017-Nov-14 20:30N 36°03' W 005°14'  
2017-Nov-11 02:19N 36°24' E 013°44'411.9
2017-Nov-11 02:00N 36°24' E 013°49'611.5
2017-Nov-11 01:30N 36°24' E 013°56'611.7
2017-Nov-11 00:58N 36°24' E 014°03'611.7
2017-Nov-11 00:30N 36°24' E 014°10'611.8
2017-Nov-11 00:00N 36°24' E 014°18'611.8
2017-Nov-10 23:30N 36°24' E 014°25'611.7
2017-Nov-10 22:59N 36°24' E 014°32'5 9.7
2017-Nov-10 22:30N 36°24' E 014°38'  
2017-Nov-08 11:09N 40°03' E 025°03'412.6
2017-Nov-08 10:51N 40°07' E 025°06'612.4
2017-Nov-08 10:22N 40°12' E 025°09'512.7
2017-Nov-08 09:59N 40°16' E 025°12'4012.6
2017-Nov-08 06:47N 40°46' E 025°48'412.8
2017-Nov-08 06:27N 40°49' E 025°52'39 1.6
2017-Nov-07 05:59N 40°21' E 025°16'612.0
2017-Nov-07 05:30N 40°16' E 025°12'712.1
2017-Nov-07 04:54N 40°10' E 025°08'612.4
2017-Nov-07 04:27N 40°05' E 025°04'612.7
2017-Nov-07 04:00N 40°00' E 025°00'  

Dump ship's entire track history